Time;durP1;ratioP1;P1;durP2;ratioP2;P2;SDS_P1;SDS_P2;PMS_P1;PMS_P2;Temp;Humidity;BMP_temperature;BMP_pressure;BME280_temperature;BME280_humidity;BME280_pressure;Samples;Min_cycle;Max_cycle;Signal;HPM_P1;HPM_P2
2022/09/20 00:01:19;;;;;;;10.45;2.75;;;9.80;99.90;;;;;;4416479;27;9999932;-77
2022/09/20 00:03:47;;;;;;;12.88;2.95;;;9.80;99.90;;;;;;5126416;27;20394;-76
2022/09/20 00:06:18;;;;;;;10.27;3.05;;;9.80;99.90;;;;;;5106936;27;20089;-76
2022/09/20 00:08:45;;;;;;;8.18;2.55;;;9.80;99.90;;;;;;5119157;27;20065;-76
2022/09/20 00:11:25;;;;;;;6.90;2.40;;;9.80;99.90;;;;;;5123396;27;20436;-76
2022/09/20 00:13:54;;;;;;;9.68;2.80;;;9.80;99.90;;;;;;5109579;27;20546;-76
2022/09/20 00:16:23;;;;;;;11.95;2.80;;;9.80;99.90;;;;;;5116509;27;20020;-76
2022/09/20 00:18:49;;;;;;;9.15;2.70;;;9.90;99.90;;;;;;5111098;27;20023;-76
2022/09/20 00:21:18;;;;;;;5.45;2.30;;;9.90;99.90;;;;;;5109313;27;20024;-77
2022/09/20 00:23:44;;;;;;;7.93;2.40;;;9.90;99.90;;;;;;5114466;27;20105;-77
2022/09/20 00:26:10;;;;;;;11.32;2.65;;;9.90;99.90;;;;;;5099235;27;20070;-77
2022/09/20 00:28:35;;;;;;;8.20;2.55;;;9.90;99.90;;;;;;5122997;27;20416;-77
2022/09/20 00:31:01;;;;;;;15.70;3.50;;;9.80;99.90;;;;;;5112202;27;20057;-77
2022/09/20 00:35:06;;;;;;;12.82;3.40;;;9.80;99.90;;;;;;5108252;27;20027;-77
2022/09/20 00:36:13;;;;;;;12.60;3.15;;;9.80;99.90;;;;;;5110798;27;20155;-77
2022/09/20 00:38:38;;;;;;;7.60;2.53;;;9.80;99.90;;;;;;5109745;27;20479;-77
2022/09/20 00:41:04;;;;;;;6.72;2.55;;;9.70;99.90;;;;;;5106879;27;20054;-76
2022/09/20 00:43:38;;;;;;;10.70;2.60;;;9.70;99.90;;;;;;5108345;27;20040;-77
2022/09/20 00:46:08;;;;;;;8.10;2.40;;;9.80;99.90;;;;;;5110620;27;20035;-76
2022/09/20 00:48:34;;;;;;;7.85;2.08;;;9.80;99.90;;;;;;5111021;27;20074;-77
2022/09/20 00:51:08;;;;;;;7.72;2.30;;;9.80;99.90;;;;;;5108353;27;20055;-77
2022/09/20 00:53:39;;;;;;;7.68;2.40;;;9.80;99.90;;;;;;5107517;27;20032;-77
2022/09/20 00:56:23;;;;;;;4.60;2.03;;;9.80;99.90;;;;;;5119438;27;20091;-77
2022/09/20 00:59:12;;;;;;;8.00;2.10;;;9.80;99.90;;;;;;5122444;27;20035;-77
2022/09/20 01:01:38;;;;;;;5.57;1.73;;;9.80;99.90;;;;;;5121530;27;20031;-76
2022/09/20 01:04:04;;;;;;;7.85;2.10;;;9.80;99.90;;;;;;5109922;27;20564;-76
2022/09/20 01:06:31;;;;;;;8.90;2.17;;;9.80;99.90;;;;;;5110309;27;20508;-77
2022/09/20 01:09:01;;;;;;;7.43;2.10;;;9.80;99.90;;;;;;5126544;27;20019;-76
2022/09/20 01:11:28;;;;;;;6.22;2.00;;;9.70;99.90;;;;;;5107444;27;20370;-76
2022/09/20 01:13:54;;;;;;;6.10;2.53;;;9.70;99.90;;;;;;5117526;27;20027;-76
2022/09/20 01:16:21;;;;;;;9.30;2.85;;;9.70;99.90;;;;;;5102701;27;20079;-76
2022/09/20 01:18:48;;;;;;;5.63;2.13;;;9.60;99.90;;;;;;5119922;27;20416;-76
2022/09/20 01:21:15;;;;;;;5.88;2.10;;;9.60;99.90;;;;;;5119044;27;20495;-76
2022/09/20 01:24:08;;;;;;;6.20;2.00;;;9.60;99.90;;;;;;5110707;27;20035;-76
2022/09/20 01:27:09;;;;;;;5.70;1.90;;;9.50;99.90;;;;;;5109145;27;20028;-76
2022/09/20 01:29:48;;;;;;;8.43;2.08;;;9.50;99.90;;;;;;5109549;27;20080;-76
2022/09/20 01:32:19;;;;;;;6.20;2.28;;;9.50;99.90;;;;;;5123955;27;20031;-76
2022/09/20 01:34:48;;;;;;;6.43;2.22;;;9.40;99.90;;;;;;5107695;27;20027;-76
2022/09/20 01:37:25;;;;;;;8.88;2.10;;;9.30;99.90;;;;;;5112419;27;20042;-77
2022/09/20 01:40:09;;;;;;;13.65;2.72;;;9.30;99.90;;;;;;5110118;27;20030;-76
2022/09/20 01:42:55;;;;;;;8.75;2.67;;;9.20;99.90;;;;;;5123714;27;20035;-76
2022/09/20 01:45:29;;;;;;;12.02;2.67;;;9.20;99.90;;;;;;5127795;27;20031;-76
2022/09/20 01:48:00;;;;;;;7.68;2.30;;;9.10;99.90;;;;;;5121782;27;20106;-76
2022/09/20 01:51:03;;;;;;;9.02;2.25;;;9.10;99.90;;;;;;5115656;27;20733;-76
2022/09/20 01:54:15;;;;;;;6.78;2.30;;;9.00;99.90;;;;;;5113528;27;20031;-76
2022/09/20 01:57:17;;;;;;;7.07;2.20;;;8.90;99.90;;;;;;5035708;28;20024;-76
2022/09/20 01:59:48;;;;;;;5.97;2.25;;;8.90;99.90;;;;;;5116285;27;20015;-76
2022/09/20 02:02:38;;;;;;;8.20;2.85;;;8.90;99.90;;;;;;5118198;27;20039;-75
2022/09/20 02:05:11;;;;;;;5.43;2.30;;;8.80;99.90;;;;;;5126391;27;20156;-76
2022/09/20 02:07:55;;;;;;;6.15;1.90;;;8.80;99.90;;;;;;5121460;27;20506;-76
2022/09/20 02:10:39;;;;;;;5.20;2.13;;;8.90;99.90;;;;;;5122127;27;20031;-76
2022/09/20 02:13:20;;;;;;;6.05;2.20;;;8.90;99.90;;;;;;5102124;27;20076;-76
2022/09/20 02:16:25;;;;;;;5.90;2.20;;;8.90;99.90;;;;;;5106354;28;20058;-76
2022/09/20 02:19:09;;;;;;;4.65;1.90;;;8.90;99.90;;;;;;5113896;27;20020;-76
2022/09/20 02:21:50;;;;;;;6.78;2.10;;;8.90;99.90;;;;;;5124005;27;20425;-76
2022/09/20 02:24:27;;;;;;;11.70;2.35;;;8.90;99.90;;;;;;5097956;27;20077;-76
2022/09/20 02:27:01;;;;;;;8.13;2.03;;;9.00;99.90;;;;;;5113516;27;20019;-76
2022/09/20 02:29:46;;;;;;;6.57;1.77;;;9.00;99.90;;;;;;5116041;27;20268;-76
2022/09/20 02:32:25;;;;;;;7.57;1.70;;;9.00;99.90;;;;;;5108552;27;20028;-76
2022/09/20 02:35:18;;;;;;;5.60;2.13;;;9.10;99.90;;;;;;5106555;27;20201;-76
2022/09/20 02:37:57;;;;;;;6.63;1.85;;;9.00;99.90;;;;;;5120097;27;20022;-75
2022/09/20 02:40:47;;;;;;;7.50;1.92;;;9.10;99.90;;;;;;5126030;27;20134;-76
2022/09/20 02:43:27;;;;;;;5.65;1.70;;;9.10;99.90;;;;;;5114752;27;20096;-76
2022/09/20 02:46:07;;;;;;;7.38;1.85;;;9.00;99.90;;;;;;5109768;27;20076;-76
2022/09/20 02:49:02;;;;;;;6.03;1.70;;;9.00;99.90;;;;;;5106586;27;20023;-76
2022/09/20 02:51:32;;;;;;;7.35;1.98;;;9.00;99.90;;;;;;5108081;27;20135;-76
2022/09/20 02:54:14;;;;;;;7.63;1.88;;;9.00;99.90;;;;;;5113034;28;20123;-76
2022/09/20 02:57:02;;;;;;;7.63;2.10;;;9.00;99.90;;;;;;5116547;28;20034;-76
2022/09/20 02:59:40;;;;;;;6.03;2.00;;;9.00;99.90;;;;;;5108528;28;20028;-76
2022/09/20 03:02:24;;;;;;;7.80;2.30;;;9.00;99.90;;;;;;5105948;28;20035;-75
2022/09/20 03:05:08;;;;;;;7.25;1.73;;;9.00;99.90;;;;;;5104672;28;20032;-76
2022/09/20 03:07:52;;;;;;;7.05;1.98;;;9.10;99.90;;;;;;5102877;28;20239;-76
2022/09/20 03:10:33;;;;;;;8.27;2.30;;;9.10;99.90;;;;;;5125221;27;20114;-76
2022/09/20 03:13:20;;;;;;;6.22;1.63;;;9.10;99.90;;;;;;5125085;28;20027;-76
2022/09/20 03:16:14;;;;;;;5.38;1.83;;;9.10;99.90;;;;;;5113205;28;20493;-75
2022/09/20 03:19:02;;;;;;;11.85;2.38;;;9.10;99.90;;;;;;5124828;27;20019;-76
2022/09/20 03:22:04;;;;;;;5.03;1.70;;;9.10;99.90;;;;;;5109626;27;20034;-76
2022/09/20 03:24:41;;;;;;;6.43;2.00;;;9.10;99.90;;;;;;5104755;28;20027;-76
2022/09/20 03:27:18;;;;;;;9.95;1.83;;;9.00;99.90;;;;;;5112404;27;20489;-76
2022/09/20 03:30:00;;;;;;;10.13;1.95;;;9.00;99.90;;;;;;5112930;27;20027;-76
2022/09/20 03:33:09;;;;;;;9.20;2.30;;;9.00;99.90;;;;;;5115667;27;20474;-76
2022/09/20 03:36:12;;;;;;;8.57;2.15;;;9.00;99.90;;;;;;5109581;27;20043;-76
2022/09/20 03:39:00;;;;;;;6.78;1.98;;;8.90;99.90;;;;;;5031511;28;20040;-76
2022/09/20 03:42:05;;;;;;;6.47;1.80;;;8.90;99.90;;;;;;5107828;27;20060;-76
2022/09/20 03:44:50;;;;;;;12.40;2.13;;;8.80;99.90;;;;;;5108102;27;20043;-76
2022/09/20 03:47:26;;;;;;;9.13;2.17;;;8.90;99.90;;;;;;5108658;27;20024;-76
2022/09/20 03:50:03;;;;;;;13.18;2.08;;;8.90;99.90;;;;;;5113291;27;20016;-75
2022/09/20 03:52:38;;;;;;;8.80;2.38;;;8.90;99.90;;;;;;5117448;27;20076;-75
2022/09/20 03:55:42;;;;;;;14.05;2.42;;;8.90;99.90;;;;;;5109683;27;20031;-76
2022/09/20 03:58:52;;;;;;;9.27;2.20;;;9.00;99.90;;;;;;5113473;27;20468;-76
2022/09/20 04:01:38;;;;;;;9.13;2.60;;;9.00;99.90;;;;;;5058753;28;20096;-76
2022/09/20 04:04:24;;;;;;;6.32;2.13;;;9.00;99.90;;;;;;5120243;27;20023;-75
2022/09/20 04:07:15;;;;;;;9.48;2.60;;;9.00;99.90;;;;;;5119191;27;20082;-76
2022/09/20 04:10:26;;;;;;;7.57;2.10;;;9.00;99.90;;;;;;5119361;27;20026;-76
2022/09/20 04:13:06;;;;;;;14.88;2.50;;;9.10;99.90;;;;;;5087218;27;20031;-75
2022/09/20 04:15:41;;;;;;;7.47;2.72;;;9.10;99.90;;;;;;5123720;27;20046;-76
2022/09/20 04:18:41;;;;;;;10.13;2.50;;;9.10;99.90;;;;;;5104966;27;20118;-76
2022/09/20 04:21:45;;;;;;;8.95;2.05;;;9.10;99.90;;;;;;5119026;27;20023;-76
2022/09/20 04:24:22;;;;;;;8.88;2.42;;;9.20;99.90;;;;;;5054866;27;20157;-76
2022/09/20 04:27:20;;;;;;;7.68;2.40;;;9.20;99.90;;;;;;5107407;27;20612;-76
2022/09/20 04:29:56;;;;;;;10.93;2.80;;;9.20;99.90;;;;;;5107981;27;20044;-75
2022/09/20 04:32:48;;;;;;;10.48;2.55;;;9.20;99.90;;;;;;5110008;27;20080;-76
2022/09/20 04:38:30;;;;;;;11.38;2.67;;;9.20;99.90;;;;;;5118560;27;20156;-75
2022/09/20 04:41:05;;;;;;;9.45;2.80;;;9.20;99.90;;;;;;5124228;27;20482;-76
2022/09/20 04:44:01;;;;;;;13.70;3.25;;;9.30;99.90;;;;;;5110886;27;20028;-76
2022/09/20 04:46:40;;;;;;;9.80;2.53;;;9.30;99.90;;;;;;5109194;27;20059;-76
2022/09/20 04:49:24;;;;;;;11.73;3.03;;;9.30;99.90;;;;;;5117089;27;20031;-76
2022/09/20 04:52:05;;;;;;;10.15;4.05;;;9.30;99.90;;;;;;5115333;27;20114;-76
2022/09/20 04:54:37;;;;;;;17.10;7.65;;;9.30;99.90;;;;;;5108133;27;20364;-76
2022/09/20 04:57:52;;;;;;;11.48;5.20;;;9.30;99.90;;;;;;5114030;27;20111;-76
2022/09/20 05:00:23;;;;;;;14.68;4.80;;;9.30;99.90;;;;;;5125660;27;20627;-76
2022/09/20 05:03:25;;;;;;;10.48;5.63;;;9.30;99.90;;;;;;5123296;27;20027;-76
2022/09/20 05:06:17;;;;;;;14.60;4.72;;;9.30;99.90;;;;;;5128283;27;20070;-76
2022/09/20 05:08:48;;;;;;;10.95;5.88;;;9.30;99.90;;;;;;5114170;27;20031;-76
2022/09/20 05:11:30;;;;;;;16.65;7.32;;;9.30;99.90;;;;;;5114451;27;20019;-76
2022/09/20 05:14:23;;;;;;;15.50;6.65;;;9.20;99.90;;;;;;5124751;27;20122;-76
2022/09/20 05:17:10;;;;;;;11.77;3.85;;;9.20;99.90;;;;;;5119421;27;20027;-75
2022/09/20 05:20:10;;;;;;;9.85;2.78;;;9.20;99.90;;;;;;5114219;27;20543;-75
2022/09/20 05:22:42;;;;;;;6.75;2.35;;;9.20;99.90;;;;;;5106635;28;20054;-76
2022/09/20 05:25:34;;;;;;;7.05;2.28;;;9.20;99.90;;;;;;5113383;27;20027;-76
2022/09/20 05:28:20;;;;;;;9.80;2.83;;;9.20;99.90;;;;;;5096777;28;20039;-76
2022/09/20 05:30:46;;;;;;;7.93;3.00;;;9.20;99.90;;;;;;5110668;27;20455;-76
2022/09/20 05:33:19;;;;;;;11.35;3.33;;;9.20;99.90;;;;;;5124349;27;20031;-76
2022/09/20 05:36:04;;;;;;;13.02;3.33;;;9.10;99.90;;;;;;5106914;27;20076;-76
2022/09/20 05:38:39;;;;;;;8.77;2.58;;;9.20;99.90;;;;;;5119690;27;20047;-76
2022/09/20 05:41:22;;;;;;;10.60;2.97;;;9.20;99.90;;;;;;5110151;27;20048;-76
2022/09/20 05:43:56;;;;;;;10.45;3.20;;;9.30;99.90;;;;;;5106777;28;20031;-76
2022/09/20 05:46:33;;;;;;;9.85;2.70;;;9.30;99.90;;;;;;5110978;27;20066;-76
2022/09/20 05:49:06;;;;;;;8.63;2.60;;;9.30;99.90;;;;;;5103339;27;20055;-76
2022/09/20 05:51:56;;;;;;;9.52;2.90;;;9.30;99.90;;;;;;5123506;27;20077;-76
2022/09/20 05:54:43;;;;;;;9.93;2.78;;;9.30;99.90;;;;;;5109270;27;20022;-76
2022/09/20 05:57:36;;;;;;;5.10;2.20;;;9.30;99.90;;;;;;5102704;27;20398;-76
2022/09/20 06:00:19;;;;;;;6.78;2.50;;;9.30;99.90;;;;;;5115442;27;20330;-76
2022/09/20 06:02:59;;;;;;;6.77;2.10;;;9.40;99.90;;;;;;5118207;27;20091;-76
2022/09/20 06:05:43;;;;;;;7.93;2.13;;;9.40;99.90;;;;;;5125208;27;20031;-76
2022/09/20 06:08:32;;;;;;;5.95;2.03;;;9.40;99.90;;;;;;5114232;27;20053;-77
2022/09/20 06:11:06;;;;;;;5.60;2.20;;;9.40;99.90;;;;;;5115714;27;20047;-76
2022/09/20 06:13:47;;;;;;;7.82;2.00;;;9.40;99.90;;;;;;5115849;27;20279;-76
2022/09/20 06:16:31;;;;;;;7.78;2.17;;;9.40;99.90;;;;;;5106737;27;20046;-76
2022/09/20 06:19:15;;;;;;;6.78;2.10;;;9.50;99.90;;;;;;5117973;27;20019;-76
2022/09/20 06:21:49;;;;;;;5.50;2.30;;;9.50;99.90;;;;;;5111916;27;20027;-76
2022/09/20 06:24:34;;;;;;;7.88;1.95;;;9.50;99.90;;;;;;5109713;27;20034;-76
2022/09/20 06:27:07;;;;;;;8.88;2.33;;;9.50;99.90;;;;;;5111615;27;20558;-76
2022/09/20 06:29:37;;;;;;;8.50;2.72;;;9.50;99.90;;;;;;5104521;27;20423;-76
2022/09/20 06:32:03;;;;;;;9.30;2.50;;;9.50;99.90;;;;;;5108438;27;20116;-77
2022/09/20 06:34:29;;;;;;;8.93;2.78;;;9.60;99.90;;;;;;5106139;27;20058;-77
2022/09/20 06:43:21;;;;;;;11.70;2.22;;;9.80;99.90;;;;;;5107764;27;20035;-76
2022/09/20 06:45:47;;;;;;;13.93;2.22;;;9.90;99.90;;;;;;5109353;27;20047;-77
2022/09/20 06:48:14;;;;;;;7.95;2.10;;;10.00;99.90;;;;;;5118475;27;20027;-76
2022/09/20 06:50:44;;;;;;;10.70;2.42;;;10.10;99.90;;;;;;5107263;28;20042;-74
2022/09/20 06:53:19;;;;;;;16.52;2.65;;;10.20;99.90;;;;;;5104715;27;20041;-77
2022/09/20 06:55:45;;;;;;;13.90;2.53;;;10.20;99.90;;;;;;5113851;28;20130;-76
2022/09/20 06:58:11;;;;;;;11.50;2.17;;;10.20;99.90;;;;;;5115350;28;20027;-77
2022/09/20 07:00:38;;;;;;;7.97;1.90;;;10.30;99.90;;;;;;5105579;28;20500;-77
2022/09/20 07:03:04;;;;;;;9.65;2.05;;;10.30;99.90;;;;;;5122985;28;20279;-77
2022/09/20 07:05:30;;;;;;;7.90;2.03;;;10.30;99.90;;;;;;5105597;28;20035;-76
2022/09/20 07:07:57;;;;;;;6.90;1.83;;;10.30;99.90;;;;;;5104110;28;20548;-77
2022/09/20 07:10:23;;;;;;;8.27;2.10;;;10.40;99.90;;;;;;5104594;27;20111;-76
2022/09/20 07:12:49;;;;;;;9.15;1.67;;;10.40;99.90;;;;;;5120791;28;20019;-76
2022/09/20 07:15:15;;;;;;;9.93;2.08;;;10.40;99.90;;;;;;5119995;28;20515;-76
2022/09/20 07:17:44;;;;;;;8.60;1.95;;;10.50;99.90;;;;;;5125796;27;20531;-76
2022/09/20 07:20:09;;;;;;;6.55;1.70;;;10.50;99.90;;;;;;4771431;27;9999968;-77
2022/09/20 07:22:35;;;;;;;7.45;2.08;;;10.60;99.90;;;;;;5120887;27;20016;-78
2022/09/20 07:25:01;;;;;;;7.45;2.25;;;10.70;99.90;;;;;;5116725;27;20031;-81
2022/09/20 07:27:28;;;;;;;19.10;2.55;;;10.80;99.90;;;;;;5120922;28;20106;-79
2022/09/20 07:29:54;;;;;;;10.02;2.08;;;10.80;99.90;;;;;;5106565;27;20477;-78
2022/09/20 07:32:19;;;;;;;10.45;2.50;;;10.90;99.90;;;;;;5125384;27;20606;-77
2022/09/20 07:34:45;;;;;;;14.85;2.35;;;10.90;99.90;;;;;;5117463;27;20012;-78
2022/09/20 07:37:11;;;;;;;11.48;2.53;;;10.90;99.90;;;;;;5123697;27;20156;-78
2022/09/20 07:39:37;;;;;;;10.25;1.80;;;10.90;99.90;;;;;;5139289;27;20022;-78
2022/09/20 07:42:05;;;;;;;7.35;2.08;;;10.90;99.90;;;;;;5110467;27;20058;-78
2022/09/20 07:44:30;;;;;;;6.72;2.10;;;11.00;99.90;;;;;;5120159;28;20490;-81
2022/09/20 07:47:00;;;;;;;11.57;2.50;;;10.90;99.90;;;;;;5120513;28;20042;-81
2022/09/20 07:49:30;;;;;;;10.48;2.60;;;10.90;99.90;;;;;;5115331;27;20045;-81
2022/09/20 07:51:57;;;;;;;8.80;2.58;;;11.00;99.90;;;;;;5126028;27;20495;-81
2022/09/20 07:54:22;;;;;;;8.40;1.95;;;11.10;99.90;;;;;;5087860;28;20114;-80
2022/09/20 07:56:48;;;;;;;10.88;2.38;;;11.20;99.90;;;;;;5099488;28;20076;-80
2022/09/20 07:59:14;;;;;;;9.85;2.10;;;11.20;99.90;;;;;;5100766;28;20499;-79
2022/09/20 08:01:41;;;;;;;11.82;2.10;;;11.20;99.90;;;;;;5109859;27;20055;-80
2022/09/20 08:04:08;;;;;;;8.32;2.03;;;11.20;99.90;;;;;;5125280;27;20028;-79
2022/09/20 08:06:44;;;;;;;4.55;1.80;;;11.20;99.90;;;;;;5107880;27;20429;-79
2022/09/20 08:09:11;;;;;;;11.55;2.30;;;11.20;99.90;;;;;;5112346;27;20417;-80
2022/09/20 08:11:38;;;;;;;11.52;2.00;;;11.30;99.90;;;;;;4413482;27;10000762;-83
2022/09/20 08:14:04;;;;;;;8.32;1.92;;;11.40;99.90;;;;;;5114398;27;20031;-80
2022/09/20 08:16:31;;;;;;;7.25;2.10;;;11.50;99.90;;;;;;5103254;28;20038;-78
2022/09/20 08:18:59;;;;;;;7.38;1.70;;;11.60;99.90;;;;;;5117742;27;20095;-78
2022/09/20 08:21:26;;;;;;;9.05;2.05;;;11.70;99.90;;;;;;5116461;27;20055;-77
2022/09/20 08:23:52;;;;;;;9.32;1.75;;;11.80;99.90;;;;;;5125537;27;20475;-78
2022/09/20 08:26:21;;;;;;;6.88;1.52;;;11.90;99.90;;;;;;5116946;27;20122;-78
2022/09/20 08:28:51;;;;;;;10.80;1.90;;;12.00;99.90;;;;;;5120141;27;20074;-78
2022/09/20 08:31:19;;;;;;;6.32;1.55;;;11.90;99.90;;;;;;5105398;27;20197;-81
2022/09/20 08:33:47;;;;;;;6.75;1.65;;;12.00;99.90;;;;;;5104953;28;20023;-77
2022/09/20 08:36:15;;;;;;;14.50;1.70;;;12.10;99.90;;;;;;5108833;27;20015;-76
2022/09/20 08:38:41;;;;;;;5.78;1.30;;;12.10;99.90;;;;;;5107502;27;20031;-75
2022/09/20 08:41:10;;;;;;;10.63;1.52;;;12.10;99.90;;;;;;5142226;27;20099;-76
2022/09/20 08:43:56;;;;;;;8.43;1.88;;;12.10;99.90;;;;;;5115443;27;20154;-77
2022/09/20 08:46:28;;;;;;;10.85;1.40;;;12.10;99.90;;;;;;5114532;27;20034;-77
2022/09/20 08:48:55;;;;;;;7.85;2.00;;;12.20;99.90;;;;;;5105461;27;20376;-77
2022/09/20 08:51:22;;;;;;;7.43;1.60;;;12.20;99.90;;;;;;5110791;27;20490;-77
2022/09/20 08:53:51;;;;;;;5.25;1.50;;;12.20;99.90;;;;;;5136092;27;20023;-77
2022/09/20 08:56:17;;;;;;;8.20;1.58;;;12.20;99.90;;;;;;5123090;27;21032;-77
2022/09/20 08:58:45;;;;;;;12.32;1.92;;;12.30;99.90;;;;;;5112076;27;20098;-77
2022/09/20 09:01:19;;;;;;;10.95;1.80;;;12.40;99.90;;;;;;5108377;27;20070;-77
2022/09/20 09:03:46;;;;;;;6.80;1.60;;;12.50;99.90;;;;;;5124062;27;20084;-78
2022/09/20 09:06:13;;;;;;;9.07;1.60;;;12.60;99.90;;;;;;5122297;27;20059;-77
2022/09/20 09:08:42;;;;;;;8.25;1.48;;;12.70;99.90;;;;;;5120660;27;20154;-77
2022/09/20 09:11:19;;;;;;;6.85;1.40;;;12.70;99.90;;;;;;5116818;27;20261;-80
2022/09/20 09:17:01;;;;;;;5.00;1.40;;;13.00;99.90;;;;;;5098835;27;20049;-82
2022/09/20 09:19:49;;;;;;;5.30;1.20;;;13.40;99.90;;;;;;5101262;27;20020;-78
2022/09/20 09:22:41;;;;;;;6.85;1.58;;;13.60;99.90;;;;;;5106087;27;20045;-80
2022/09/20 09:25:16;;;;;;;7.72;1.48;;;13.80;99.90;;;;;;5118620;27;20031;-78
2022/09/20 09:27:57;;;;;;;5.97;1.35;;;13.70;99.90;;;;;;5123941;27;20474;-77
2022/09/20 09:30:25;;;;;;;5.70;1.00;;;13.40;99.90;;;;;;5120400;27;20027;-79
2022/09/20 09:32:52;;;;;;;5.95;1.25;;;13.20;99.90;;;;;;5134137;27;20035;-78
2022/09/20 09:35:30;;;;;;;3.85;1.10;;;12.90;99.90;;;;;;5114317;27;20391;-78
2022/09/20 09:37:59;;;;;;;7.30;1.33;;;12.70;99.90;;;;;;5122760;27;20477;-77
2022/09/20 09:40:25;;;;;;;8.15;1.33;;;12.60;99.90;;;;;;5128237;27;20051;-79
2022/09/20 09:42:58;;;;;;;4.75;1.20;;;12.50;99.90;;;;;;5115684;27;20030;-80
2022/09/20 09:45:37;;;;;;;5.78;1.15;;;12.40;99.90;;;;;;5122550;27;20020;-80
2022/09/20 09:48:24;;;;;;;10.68;1.60;;;12.30;99.90;;;;;;5116555;27;20043;-77
2022/09/20 09:51:05;;;;;;;12.43;1.50;;;12.30;99.90;;;;;;5133685;27;20522;-80
2022/09/20 09:53:35;;;;;;;8.00;1.60;;;12.20;99.90;;;;;;5103496;28;20084;-80
2022/09/20 09:56:10;;;;;;;6.18;1.50;;;12.20;99.90;;;;;;5103912;27;20081;-81
2022/09/20 09:58:57;;;;;;;5.20;1.20;;;12.10;99.90;;;;;;5111329;27;20022;-79
2022/09/20 10:01:39;;;;;;;5.30;1.33;;;12.10;99.90;;;;;;5103349;28;20028;-76
2022/09/20 10:04:16;;;;;;;7.50;1.75;;;12.10;99.90;;;;;;5137920;27;20188;-76
2022/09/20 10:07:00;;;;;;;5.82;1.35;;;12.10;99.90;;;;;;5134415;27;20033;-76
2022/09/20 10:09:44;;;;;;;5.95;1.20;;;12.30;99.90;;;;;;5102842;27;20024;-76
2022/09/20 10:12:16;;;;;;;;;;;12.60;99.90;;;;;;5102869;28;20031;-76
2022/09/20 10:14:53;;;;;;;6.13;1.20;;;12.80;99.90;;;;;;5103802;27;19908;-76
2022/09/20 10:17:45;;;;;;;5.13;1.10;;;13.10;99.90;;;;;;5116847;27;20022;-76
2022/09/20 10:21:06;;;;;;;2.00;0.82;;;13.30;99.90;;;;;;5127763;27;20346;-77
2022/09/20 10:23:50;;;;;;;3.40;0.90;;;13.40;99.90;;;;;;5017754;28;20594;-77
2022/09/20 10:26:27;;;;;;;5.57;1.00;;;13.50;99.90;;;;;;5010963;28;20025;-76
2022/09/20 10:29:24;;;;;;;2.90;0.80;;;13.50;99.90;;;;;;5085217;27;20371;-81
2022/09/20 10:32:25;;;;;;;3.42;0.90;;;13.60;99.90;;;;;;5114399;27;20027;-83
2022/09/20 10:35:05;;;;;;;4.97;0.98;;;13.70;99.90;;;;;;5104469;27;20026;-88
2022/09/20 10:38:04;;;;;;;4.53;0.95;;;13.80;99.90;;;;;;5127547;27;20023;-81
2022/09/20 10:43:29;;;;;;;3.90;0.90;;;14.00;99.90;;;;;;5102035;27;20065;-79
2022/09/20 10:46:20;;;;;;;6.90;1.20;;;14.00;99.90;;;;;;5122644;27;20058;-81
2022/09/20 10:48:52;;;;;;;4.10;0.95;;;14.30;99.90;;;;;;5112660;27;20058;-82
2022/09/20 10:51:54;;;;;;;3.10;0.85;;;14.30;99.90;;;;;;5135488;27;20527;-77
2022/09/20 10:54:32;;;;;;;5.65;1.20;;;14.20;99.90;;;;;;5105546;27;20031;-78
2022/09/20 10:57:12;;;;;;;5.72;1.10;;;14.00;99.90;;;;;;5107005;27;20023;-79
2022/09/20 10:59:56;;;;;;;5.18;1.33;;;13.90;99.90;;;;;;5111419;28;20023;-82
2022/09/20 11:02:27;;;;;;;5.75;1.60;;;13.80;99.90;;;;;;5138763;27;20042;-86
2022/09/20 11:05:08;;;;;;;5.32;1.20;;;13.90;99.90;;;;;;5130029;27;20188;-84
2022/09/20 11:07:51;;;;;;;4.70;1.00;;;14.10;99.90;;;;;;5136125;27;20126;-84
2022/09/20 11:10:24;;;;;;;4.37;1.10;;;14.20;99.90;;;;;;5120867;27;20024;-86
2022/09/20 11:13:19;;;;;;;9.18;1.52;;;14.20;99.90;;;;;;5122449;27;20039;-87
2022/09/20 11:15:54;;;;;;;5.47;1.08;;;14.20;99.90;;;;;;5054463;28;20048;-86
2022/09/20 11:18:39;;;;;;;5.90;1.25;;;14.20;99.90;;;;;;5108458;27;20058;-84
2022/09/20 11:21:26;;;;;;;5.20;1.10;;;14.30;99.90;;;;;;5128872;27;20031;-85
2022/09/20 11:24:10;;;;;;;5.13;1.27;;;14.30;99.90;;;;;;5118380;27;20025;-87
2022/09/20 11:27:01;;;;;;;3.80;1.02;;;14.40;99.90;;;;;;5119803;27;20386;-78
2022/09/20 11:29:44;;;;;;;2.33;0.95;;;14.60;99.90;;;;;;5050587;28;20539;-77
2022/09/20 11:32:14;;;;;;;5.50;1.05;;;14.80;99.90;;;;;;5112794;28;20031;-78
2022/09/20 11:34:47;;;;;;;5.55;1.20;;;14.80;99.90;;;;;;5121556;27;20062;-78
2022/09/20 11:37:14;;;;;;;7.57;1.20;;;14.70;99.90;;;;;;5130941;27;20055;-79
2022/09/20 11:39:39;;;;;;;4.45;1.10;;;14.60;99.90;;;;;;5120223;27;20233;-79
2022/09/20 11:42:09;;;;;;;5.15;1.30;;;14.60;99.90;;;;;;5126854;27;20439;-78
2022/09/20 11:44:39;;;;;;;4.13;1.20;;;14.60;99.90;;;;;;5134392;27;20054;-77
2022/09/20 11:47:30;;;;;;;5.10;1.30;;;14.70;99.90;;;;;;5129939;27;20037;-77
2022/09/20 11:50:41;;;;;;;4.15;1.13;;;14.70;99.90;;;;;;5109162;27;20023;-77
2022/09/20 11:53:52;;;;;;;5.15;0.93;;;14.80;99.90;;;;;;5116561;27;20166;-74
2022/09/20 11:56:21;;;;;;;4.60;1.10;;;14.80;99.90;;;;;;5101989;27;20034;-74
2022/09/20 11:58:54;;;;;;;3.78;1.00;;;15.00;99.90;;;;;;5123072;27;20744;-74
2022/09/20 12:01:33;;;;;;;6.05;0.98;;;15.00;99.90;;;;;;5106331;27;20039;-75
2022/09/20 12:04:21;;;;;;;5.22;0.95;;;15.10;99.90;;;;;;5122839;27;20032;-76
2022/09/20 12:07:01;;;;;;;6.95;1.02;;;15.20;99.90;;;;;;5121098;27;20023;-77
2022/09/20 12:09:39;;;;;;;2.60;0.75;;;15.50;99.90;;;;;;5126416;27;20027;-76
2022/09/20 12:12:14;;;;;;;5.07;0.80;;;15.70;99.90;;;;;;5131790;27;20023;-77
2022/09/20 12:14:40;;;;;;;4.40;0.70;;;15.80;99.90;;;;;;5112909;27;20447;-76
2022/09/20 12:17:44;;;;;;;4.85;1.00;;;15.80;99.90;;;;;;5126274;27;20076;-76
2022/09/20 12:20:28;;;;;;;;;;;15.80;99.90;;;;;;5127823;27;20022;-76
2022/09/20 12:23:14;;;;;;;4.78;1.17;;;;;;;;;;5124444;27;19916;-77
2022/09/20 12:25:59;;;;;;;6.32;0.95;;;16.30;99.90;;;;;;5125018;27;20050;-79
2022/09/20 12:28:33;;;;;;;3.30;0.95;;;16.30;99.90;;;;;;5116805;27;20040;-77
2022/09/20 12:31:17;;;;;;;3.60;0.63;;;16.40;99.90;;;;;;5128010;27;20030;-76
2022/09/20 12:33:58;;;;;;;3.38;0.88;;;16.50;99.90;;;;;;5106996;27;20108;-76
2022/09/20 12:36:26;;;;;;;3.08;0.60;;;16.50;99.90;;;;;;5131504;27;20142;-76
2022/09/20 12:39:14;;;;;;;3.97;0.70;;;16.50;99.90;;;;;;5108464;27;20419;-77
2022/09/20 12:42:00;;;;;;;3.20;0.80;;;16.40;99.90;;;;;;5108120;27;20043;-77
2022/09/20 12:45:06;;;;;;;2.45;0.65;;;16.30;99.90;;;;;;5105276;27;20039;-77
2022/09/20 12:47:33;;;;;;;4.38;0.80;;;16.10;99.90;;;;;;5114483;27;20655;-78
2022/09/20 12:53:03;;;;;;;1.83;0.70;;;15.90;99.90;;;;;;5117302;27;20029;-77
2022/09/20 12:55:49;;;;;;;2.85;0.70;;;15.90;99.90;;;;;;5141682;27;20041;-76
2022/09/20 12:58:14;;;;;;;7.68;0.70;;;15.80;99.90;;;;;;5106924;27;20311;-78
2022/09/20 13:00:51;;;;;;;3.25;0.75;;;15.70;99.90;;;;;;5142324;27;20011;-77
2022/09/20 13:03:38;;;;;;;3.83;0.63;;;15.60;99.90;;;;;;5124761;27;20023;-77
2022/09/20 13:06:08;;;;;;;4.75;0.90;;;15.50;99.90;;;;;;5115555;27;20059;-76
2022/09/20 13:08:49;;;;;;;4.80;0.95;;;15.50;99.90;;;;;;5125097;27;20031;-78
2022/09/20 13:11:38;;;;;;;3.08;0.85;;;15.50;99.90;;;;;;5119447;27;20023;-79
2022/09/20 13:14:10;;;;;;;3.90;0.80;;;15.60;99.90;;;;;;5124156;27;20073;-79
2022/09/20 13:16:38;;;;;;;3.65;0.90;;;15.80;99.90;;;;;;5115352;27;20023;-77
2022/09/20 13:19:18;;;;;;;2.50;0.60;;;16.00;99.90;;;;;;5129412;27;20020;-77
2022/09/20 13:22:16;;;;;;;6.35;0.88;;;16.20;99.90;;;;;;5123912;27;20076;-77
2022/09/20 13:24:43;;;;;;;3.80;0.65;;;;;;;;;;5109087;27;20114;-78
2022/09/20 13:27:28;;;;;;;2.53;0.75;;;16.70;99.90;;;;;;4417909;27;10000786;-78
2022/09/20 13:29:54;;;;;;;2.88;0.50;;;16.90;99.90;;;;;;5105534;27;20066;-78
2022/09/20 13:32:28;;;;;;;5.32;0.50;;;17.00;99.90;;;;;;5112285;27;20023;-78
2022/09/20 13:35:13;;;;;;;2.75;0.47;;;17.20;99.90;;;;;;5124436;27;20031;-78
2022/09/20 13:37:56;;;;;;;3.70;0.47;;;17.50;99.90;;;;;;5106972;27;20092;-78
2022/09/20 13:40:32;;;;;;;3.03;0.60;;;17.60;99.70;;;;;;5103529;27;20182;-78
2022/09/20 13:43:00;;;;;;;3.20;0.77;;;17.60;99.00;;;;;;5103703;28;20215;-78
2022/09/20 13:45:27;;;;;;;5.25;0.73;;;17.40;99.70;;;;;;5103325;28;20028;-78
2022/09/20 13:47:56;;;;;;;4.20;0.50;;;17.30;99.90;;;;;;5105760;27;20030;-78
2022/09/20 13:50:25;;;;;;;3.15;0.52;;;17.20;99.90;;;;;;5118406;27;20092;-78
2022/09/20 13:52:54;;;;;;;4.28;0.60;;;17.40;99.90;;;;;;5103360;27;20116;-77
2022/09/20 13:55:29;;;;;;;3.13;0.52;;;17.50;99.90;;;;;;5101498;27;20032;-78
2022/09/20 13:58:01;;;;;;;2.45;0.43;;;17.70;99.20;;;;;;5103555;28;20050;-78
2022/09/20 14:00:28;;;;;;;2.03;0.50;;;17.90;99.90;;;;;;5141665;27;20023;-78
2022/09/20 14:02:56;;;;;;;3.85;0.60;;;18.00;98.50;;;;;;5135201;27;20019;-78
2022/09/20 14:05:25;;;;;;;3.60;0.50;;;17.80;98.40;;;;;;5118532;27;20035;-78